Time;durP1;ratioP1;P1;durP2;ratioP2;P2;SDS_P1;SDS_P2;PMS_P1;PMS_P2;Temp;Humidity;BMP_temperature;BMP_pressure;BME280_temperature;BME280_humidity;BME280_pressure;Samples;Min_cycle;Max_cycle;Signal;HPM_P1;HPM_P2
2023/07/18 00:00:56;;;;;;;4.22;2.53;;;;;;;19.87;55.15;102069.66;5141325;27;20043;-62
2023/07/18 00:03:25;;;;;;;4.82;2.22;;;;;;;19.86;55.11;102065.28;5144709;27;20055;-62
2023/07/18 00:05:53;;;;;;;6.88;3.13;;;;;;;19.86;55.15;102069.91;5142848;27;20054;-62
2023/07/18 00:08:21;;;;;;;5.88;2.53;;;;;;;19.85;55.04;102068.25;5143939;27;20103;-62
2023/07/18 00:10:49;;;;;;;3.90;2.50;;;;;;;19.84;55.11;102070.16;5140607;27;20060;-62
2023/07/18 00:13:17;;;;;;;4.28;2.33;;;;;;;19.82;55.11;102066.88;5143128;27;20051;-62
2023/07/18 00:15:46;;;;;;;4.65;2.55;;;;;;;19.82;55.13;102075.88;5143886;27;20460;-62
2023/07/18 00:18:15;;;;;;;5.28;2.47;;;;;;;19.81;55.08;102070.69;5142982;27;20456;-62
2023/07/18 00:20:44;;;;;;;4.82;3.20;;;;;;;19.79;55.09;102073.66;5143295;27;20096;-62
2023/07/18 00:23:12;;;;;;;6.10;2.67;;;;;;;19.78;55.23;102082.09;5140200;27;20051;-62
2023/07/18 00:25:40;;;;;;;6.07;2.60;;;;;;;19.77;55.21;102084.00;5140483;28;20074;-62
2023/07/18 00:28:09;;;;;;;5.00;2.88;;;;;;;19.75;55.27;102075.25;5140194;27;20123;-62
2023/07/18 00:30:36;;;;;;;9.55;3.20;;;;;;;19.75;55.29;102079.88;5140009;27;20043;-62
2023/07/18 00:33:04;;;;;;;4.78;2.60;;;;;;;19.74;55.36;102080.94;5140165;27;20119;-62
2023/07/18 00:35:34;;;;;;;4.88;2.60;;;;;;;19.73;55.30;102071.13;5139585;27;20102;-62
2023/07/18 00:38:03;;;;;;;6.20;2.50;;;;;;;19.70;55.32;102074.34;5142119;27;20043;-61
2023/07/18 00:40:31;;;;;;;6.50;2.63;;;;;;;19.71;55.15;102076.00;5137891;27;20054;-62
2023/07/18 00:42:59;;;;;;;5.35;3.15;;;;;;;19.68;55.17;102068.31;5135072;27;20652;-62
2023/07/18 00:45:27;;;;;;;4.90;2.53;;;;;;;19.66;55.14;102067.75;5139838;27;20048;-61
2023/07/18 00:47:55;;;;;;;3.75;2.50;;;;;;;19.65;55.23;102068.81;5141003;27;20043;-63
2023/07/18 00:50:23;;;;;;;7.03;2.42;;;;;;;19.63;55.42;102068.25;5141117;27;20084;-62
2023/07/18 00:52:53;;;;;;;4.43;2.17;;;;;;;19.62;55.27;102055.69;5139158;28;20096;-62
2023/07/18 00:55:22;;;;;;;7.97;2.60;;;;;;;19.60;55.13;102064.13;5141472;27;20804;-62
2023/07/18 00:57:50;;;;;;;4.15;2.40;;;;;;;19.59;55.10;102061.66;5139319;27;20043;-62
2023/07/18 01:00:22;;;;;;;5.10;2.60;;;;;;;19.57;55.24;102052.91;5143208;27;20059;-62
2023/07/18 01:02:51;;;;;;;6.50;2.53;;;;;;;19.52;55.06;102050.94;5137823;27;20042;-62
2023/07/18 01:05:19;;;;;;;5.00;2.78;;;;;;;19.54;55.11;102050.69;5139749;27;20058;-62
2023/07/18 01:07:48;;;;;;;5.50;2.50;;;;;;;19.53;55.01;102054.47;5143301;27;20055;-62
2023/07/18 01:10:18;;;;;;;3.30;2.25;;;;;;;19.51;55.29;102060.16;5142877;27;20066;-61
2023/07/18 01:12:47;;;;;;;5.25;2.95;;;;;;;19.49;55.15;102045.94;5140737;27;20043;-61
2023/07/18 01:15:15;;;;;;;4.65;2.70;;;;;;;19.47;55.15;102043.47;5136918;27;20086;-61
2023/07/18 01:17:45;;;;;;;6.03;2.95;;;;;;;19.46;55.03;102041.81;5141640;27;20111;-62
2023/07/18 01:20:18;;;;;;;6.65;2.33;;;;;;;19.44;55.02;102045.88;5142272;27;20062;-62
2023/07/18 01:22:49;;;;;;;3.45;2.17;;;;;;;19.42;55.00;102053.50;5143348;27;21600;-62
2023/07/18 01:25:19;;;;;;;5.07;2.80;;;;;;;19.41;55.12;102052.66;5142804;27;20065;-62
2023/07/18 01:27:48;;;;;;;4.25;2.50;;;;;;;19.41;55.03;102054.56;5139681;27;20085;-61
2023/07/18 01:30:20;;;;;;;4.45;2.67;;;;;;;19.40;55.26;102051.00;5144304;27;20119;-61
2023/07/18 01:32:48;;;;;;;5.13;2.53;;;;;;;19.38;55.03;102046.88;5144183;27;20049;-61
2023/07/18 01:35:19;;;;;;;4.15;2.13;;;;;;;19.36;55.00;102041.69;5140426;27;20051;-61
2023/07/18 01:37:49;;;;;;;4.75;2.78;;;;;;;19.35;55.07;102044.66;5142295;27;20603;-61
2023/07/18 01:40:19;;;;;;;4.95;2.50;;;;;;;19.31;54.98;102038.88;5144178;27;20150;-62
2023/07/18 01:42:48;;;;;;;4.00;2.40;;;;;;;19.32;54.88;102039.72;5138692;27;20047;-61
2023/07/18 01:45:16;;;;;;;8.73;2.40;;;;;;;19.31;54.92;102038.06;5138242;27;20168;-62
2023/07/18 01:47:44;;;;;;;9.05;2.85;;;;;;;19.29;54.92;102035.59;5143667;27;20047;-62
2023/07/18 01:50:12;;;;;;;3.05;1.92;;;;;;;19.29;54.83;102026.59;5144882;27;20043;-61
2023/07/18 01:52:40;;;;;;;4.65;2.28;;;;;;;19.27;54.80;102034.19;5143189;27;20065;-61
2023/07/18 01:55:10;;;;;;;4.38;1.98;;;;;;;19.27;54.66;102037.75;5144904;27;20068;-62
2023/07/18 01:57:45;;;;;;;5.28;2.40;;;;;;;19.24;54.85;102032.78;5143440;27;20112;-61
2023/07/18 02:00:19;;;;;;;6.07;2.40;;;;;;;19.24;54.92;102021.88;5147493;27;20554;-61
2023/07/18 02:02:51;;;;;;;5.18;2.40;;;;;;;19.23;54.95;102025.69;5142879;27;20067;-62
2023/07/18 02:05:21;;;;;;;8.35;2.08;;;;;;;19.23;54.95;102022.13;5139996;27;20043;-61
2023/07/18 02:07:48;;;;;;;5.32;2.60;;;;;;;19.22;54.73;102024.03;5145214;27;20073;-61
2023/07/18 02:10:20;;;;;;;7.43;2.50;;;;;;;19.22;54.67;102015.84;5144984;27;20047;-62
2023/07/18 02:12:49;;;;;;;3.42;2.17;;;;;;;19.22;54.57;102020.47;5145788;27;20095;-62
2023/07/18 02:15:17;;;;;;;4.95;2.55;;;;;;;19.19;54.82;102009.00;5140560;27;20093;-61
2023/07/18 02:17:45;;;;;;;5.20;2.50;;;;;;;19.19;54.69;102016.34;5145446;27;20061;-62
2023/07/18 02:20:14;;;;;;;4.10;2.08;;;;;;;19.17;54.62;102008.44;5144953;27;20073;-61
2023/07/18 02:22:45;;;;;;;3.85;2.15;;;;;;;19.15;54.46;102010.59;5143395;27;20102;-60
2023/07/18 02:25:15;;;;;;;5.90;2.83;;;;;;;19.15;54.45;102007.88;5143507;27;20334;-62
2023/07/18 02:27:45;;;;;;;4.50;2.08;;;;;;;19.13;54.45;102007.28;5141728;27;20043;-62
2023/07/18 02:30:13;;;;;;;5.45;2.55;;;;;;;19.12;54.45;102004.81;5141572;27;20047;-62
2023/07/18 02:32:42;;;;;;;5.00;2.67;;;;;;;19.12;54.47;102012.97;5142875;27;20100;-61
2023/07/18 02:35:17;;;;;;;4.95;2.67;;;;;;;19.10;54.41;102023.31;5139223;27;20139;-61
2023/07/18 02:37:46;;;;;;;6.53;2.63;;;;;;;19.08;54.51;102020.84;5142442;27;20046;-62
2023/07/18 02:40:15;;;;;;;3.88;2.30;;;;;;;19.07;54.34;102023.81;5141972;27;20142;-62
2023/07/18 02:42:44;;;;;;;4.97;2.30;;;;;;;19.05;54.19;102015.09;5142619;27;20039;-62
2023/07/18 02:45:12;;;;;;;4.32;2.25;;;;;;;19.03;54.12;102020.78;5141383;27;20270;-62
2023/07/18 02:47:40;;;;;;;6.70;2.20;;;;;;;18.99;54.33;102019.63;5138861;27;20043;-62
2023/07/18 02:50:09;;;;;;;3.85;2.30;;;;;;;19.01;54.15;102011.22;5142550;27;20039;-62
2023/07/18 02:52:37;;;;;;;4.57;2.13;;;;;;;18.98;53.96;102011.72;5141311;27;20047;-61
2023/07/18 02:55:06;;;;;;;4.72;2.20;;;;;;;18.96;54.12;102003.78;5141581;27;20043;-62
2023/07/18 02:57:34;;;;;;;4.40;2.30;;;;;;;18.95;54.00;102013.03;5140395;27;20054;-62
2023/07/18 03:00:06;;;;;;;3.25;2.20;;;;;;;18.94;53.83;102011.38;5142343;27;20147;-62
2023/07/18 03:02:34;;;;;;;6.70;2.70;;;;;;;18.92;53.97;102005.38;5138968;27;20053;-62
2023/07/18 03:05:02;;;;;;;8.23;3.35;;;;;;;18.90;53.87;102009.41;5138338;27;20055;-61
2023/07/18 03:07:30;;;;;;;5.10;2.22;;;;;;;18.87;53.77;102007.19;5139504;27;20051;-61
2023/07/18 03:09:58;;;;;;;4.00;1.83;;;;;;;18.85;53.80;102005.53;5142847;27;20054;-61
2023/07/18 03:12:26;;;;;;;4.88;2.15;;;;;;;18.86;53.88;102009.09;5136977;27;20042;-61
2023/07/18 03:14:54;;;;;;;5.22;1.92;;;;;;;18.85;53.60;102008.25;5142085;27;20043;-61
2023/07/18 03:17:23;;;;;;;5.45;2.20;;;;;;;18.84;53.68;102011.22;5137956;27;20055;-62
2023/07/18 03:19:51;;;;;;;4.55;2.28;;;;;;;18.82;53.86;102006.03;5141333;27;20088;-62
2023/07/18 03:22:19;;;;;;;3.58;1.98;;;;;;;18.80;53.77;101993.72;5143328;27;20106;-62
2023/07/18 03:24:47;;;;;;;4.22;1.98;;;;;;;18.79;53.88;102000.25;5138319;27;20043;-62
2023/07/18 03:27:15;;;;;;;7.28;2.58;;;;;;;18.78;53.76;102010.31;5138717;27;20099;-61
2023/07/18 03:29:43;;;;;;;6.05;2.45;;;;;;;18.77;53.55;102005.94;5142636;27;20047;-61
2023/07/18 03:32:12;;;;;;;4.93;2.33;;;;;;;18.74;53.72;102003.72;5139927;27;20392;-61
2023/07/18 03:34:42;;;;;;;2.92;1.80;;;;;;;18.73;53.35;102002.06;5140625;27;20046;-62
2023/07/18 03:37:10;;;;;;;5.53;2.25;;;;;;;18.71;53.62;101997.94;5142153;27;20047;-62
2023/07/18 03:39:37;;;;;;;3.40;2.03;;;;;;;18.70;53.41;102004.47;5139618;27;20076;-62
2023/07/18 03:42:06;;;;;;;3.97;2.17;;;;;;;18.69;53.58;101991.94;5141852;27;20146;-62
2023/07/18 03:44:34;;;;;;;8.27;2.20;;;;;;;18.68;53.48;101996.53;5136873;27;20043;-61
2023/07/18 03:47:01;;;;;;;3.42;2.00;;;;;;;18.66;53.61;102001.41;5141926;27;20069;-62
2023/07/18 03:49:48;;;;;;;4.05;1.73;;;;;;;18.65;53.37;101996.22;5141517;27;20074;-62
2023/07/18 03:52:16;;;;;;;2.25;1.63;;;;;;;18.65;53.55;102001.66;5142863;27;20466;-62
2023/07/18 03:54:45;;;;;;;4.18;1.85;;;;;;;18.64;53.63;102009.00;5142992;27;20096;-60
2023/07/18 03:57:13;;;;;;;5.03;2.28;;;;;;;18.63;53.38;101995.63;5143938;27;20047;-62
2023/07/18 03:59:41;;;;;;;5.50;2.00;;;;;;;18.62;53.56;102002.16;5141146;27;20061;-62
2023/07/18 04:02:09;;;;;;;3.55;1.75;;;;;;;18.60;53.34;101999.66;5144033;27;20100;-62
2023/07/18 04:04:37;;;;;;;3.28;2.10;;;;;;;18.58;53.57;101993.63;5142958;27;20046;-62
2023/07/18 04:07:06;;;;;;;4.00;1.90;;;;;;;18.58;53.64;101993.63;5143620;27;20127;-61
2023/07/18 04:09:34;;;;;;;4.32;1.85;;;;;;;18.55;53.38;101985.94;5143398;27;20103;-62
2023/07/18 04:12:02;;;;;;;5.05;1.80;;;;;;;18.55;53.46;101985.94;5143126;27;20114;-62
2023/07/18 04:14:30;;;;;;;3.88;2.00;;;;;;;18.56;53.43;101984.88;5143378;27;20394;-62
2023/07/18 04:16:58;;;;;;;3.75;2.20;;;;;;;18.54;53.51;101978.84;5140106;27;20076;-62
2023/07/18 04:19:26;;;;;;;4.97;2.38;;;;;;;18.52;53.40;101979.09;5139603;28;20039;-62
2023/07/18 04:21:54;;;;;;;4.85;2.33;;;;;;;18.51;53.36;101980.19;5141997;27;20457;-62
2023/07/18 04:24:23;;;;;;;3.80;1.83;;;;;;;18.49;53.41;101973.31;5140114;28;20069;-61
2023/07/18 04:26:51;;;;;;;4.57;2.42;;;;;;;18.49;53.48;101979.59;5140321;27;20058;-61
2023/07/18 04:29:19;;;;;;;4.18;1.98;;;;;;;18.47;53.33;101976.28;5138679;27;20159;-61
2023/07/18 04:31:47;;;;;;;4.43;1.95;;;;;;;18.45;53.38;101974.91;5140694;28;20092;-61
2023/07/18 04:34:16;;;;;;;5.38;1.75;;;;;;;18.46;53.41;101976.53;5138617;28;20123;-61
2023/07/18 04:36:44;;;;;;;2.80;1.80;;;;;;;18.45;53.40;101972.16;5137356;28;20043;-62
2023/07/18 04:39:12;;;;;;;4.65;1.80;;;;;;;18.43;53.38;101977.84;5138324;27;20051;-61
2023/07/18 04:41:41;;;;;;;5.03;2.13;;;;;;;18.42;53.45;101975.38;5145611;27;20047;-62
2023/07/18 04:44:22;;;;;;;4.30;1.73;;;;;;;18.41;53.34;101980.00;5143801;27;20039;-60
2023/07/18 04:46:50;;;;;;;3.00;1.77;;;;;;;18.39;53.42;101976.69;5143169;27;20057;-63
2023/07/18 04:49:18;;;;;;;7.70;2.10;;;;;;;18.38;53.38;101983.22;5141183;27;20053;-63
2023/07/18 04:51:46;;;;;;;4.15;1.90;;;;;;;18.38;53.59;101979.66;5139248;27;20042;-62
2023/07/18 04:54:13;;;;;;;4.03;1.80;;;;;;;18.36;53.40;101974.47;5143603;27;20397;-63
2023/07/18 04:56:43;;;;;;;2.95;1.90;;;;;;;18.35;53.35;101974.72;5143619;27;20047;-62
2023/07/18 04:59:10;;;;;;;4.43;1.75;;;;;;;18.35;53.60;101978.25;5141795;27;20645;-62
2023/07/18 05:01:41;;;;;;;4.88;1.80;;;;;;;18.35;53.42;101974.72;5143471;27;20096;-62
2023/07/18 05:04:09;;;;;;;4.28;1.55;;;;;;;18.34;53.34;101971.16;5141050;27;20047;-63
2023/07/18 05:06:37;;;;;;;2.60;1.65;;;;;;;18.34;53.23;101973.91;5142064;27;20065;-62
2023/07/18 05:09:04;;;;;;;5.50;1.70;;;;;;;18.33;53.15;101972.25;5140538;27;20114;-63
2023/07/18 05:11:32;;;;;;;4.57;1.48;;;;;;;18.34;53.17;101968.44;5141633;27;20099;-63
2023/07/18 05:14:03;;;;;;;5.57;2.08;;;;;;;18.32;53.28;101972.50;5143157;27;20039;-61
2023/07/18 05:16:31;;;;;;;4.10;1.90;;;;;;;18.31;53.24;101974.38;5144330;27;20054;-61
2023/07/18 05:18:59;;;;;;;4.93;1.90;;;;;;;18.31;53.25;101960.78;5141391;27;20055;-62
2023/07/18 05:21:27;;;;;;;3.80;1.90;;;;;;;18.29;53.46;101962.91;5143332;27;20070;-61
2023/07/18 05:23:55;;;;;;;4.85;2.47;;;;;;;18.31;53.27;101962.66;5140332;27;20055;-61
2023/07/18 05:26:22;;;;;;;6.72;2.35;;;;;;;18.30;53.46;101959.13;5141928;27;20541;-62
2023/07/18 05:28:51;;;;;;;6.30;2.25;;;;;;;18.33;53.43;101968.69;5142794;27;20043;-62
2023/07/18 05:31:20;;;;;;;3.03;1.58;;;;;;;18.33;53.42;101966.81;5142386;27;20593;-62
2023/07/18 05:33:49;;;;;;;4.30;2.00;;;;;;;18.34;53.47;101967.63;5136016;27;20042;-60
2023/07/18 05:36:17;;;;;;;4.35;2.17;;;;;;;18.36;53.60;101962.75;5142546;27;20051;-62
2023/07/18 05:38:45;;;;;;;3.38;1.88;;;;;;;18.37;53.43;101967.97;5142871;27;20043;-62
2023/07/18 05:41:13;;;;;;;4.32;1.58;;;;;;;18.40;53.57;101969.38;5144267;27;20059;-63
2023/07/18 05:43:40;;;;;;;5.65;1.75;;;;;;;18.41;53.51;101966.41;5141445;27;20409;-62
2023/07/18 05:46:08;;;;;;;5.97;1.88;;;;;;;18.43;53.49;101963.44;5146007;27;20043;-62
2023/07/18 05:48:38;;;;;;;5.32;1.63;;;;;;;18.46;53.60;101969.19;5145370;27;20076;-62
2023/07/18 05:51:05;;;;;;;5.22;1.48;;;;;;;18.48;53.60;101967.06;5141771;27;20294;-62
2023/07/18 05:53:33;;;;;;;6.53;1.88;;;;;;;18.52;53.74;101972.84;5142573;27;20043;-62
2023/07/18 05:56:01;;;;;;;4.38;2.05;;;;;;;18.54;53.61;101971.50;4794118;27;10000171;-63
2023/07/18 05:58:29;;;;;;;3.95;1.92;;;;;;;18.58;53.63;101976.47;5141770;27;20463;-63
2023/07/18 06:00:57;;;;;;;4.47;2.13;;;;;;;18.60;53.64;101974.31;5142572;27;20073;-62
2023/07/18 06:03:25;;;;;;;5.78;1.83;;;;;;;18.63;53.70;101976.56;5137286;27;20063;-62
2023/07/18 06:05:55;;;;;;;9.02;2.70;;;;;;;18.65;53.59;101975.25;5138093;27;20053;-62
2023/07/18 06:08:23;;;;;;;6.00;2.15;;;;;;;18.68;53.87;101985.66;5145583;27;20051;-62
2023/07/18 06:10:56;;;;;;;6.03;2.10;;;;;;;18.70;53.40;101974.50;5137149;27;20047;-62
2023/07/18 06:13:24;;;;;;;5.38;2.80;;;;;;;18.73;53.84;101976.75;5147403;27;20126;-63
2023/07/18 06:15:52;;;;;;;2.92;2.03;;;;;;;18.74;53.72;101979.22;5145028;27;20427;-62
2023/07/18 06:18:20;;;;;;;5.70;1.98;;;;;;;18.76;53.74;101973.53;5138740;27;20051;-62
2023/07/18 06:20:48;;;;;;;3.22;1.48;;;;;;;18.78;53.64;101977.63;5145074;27;20039;-62
2023/07/18 06:23:17;;;;;;;2.80;1.58;;;;;;;18.79;53.64;101973.84;5147037;27;20051;-62
2023/07/18 06:25:45;;;;;;;5.47;1.60;;;;;;;18.82;53.43;101978.78;5146685;27;20084;-62
2023/07/18 06:28:13;;;;;;;6.70;2.08;;;;;;;18.84;53.65;101967.66;5140385;27;20047;-62
2023/07/18 06:30:41;;;;;;;2.83;1.98;;;;;;;18.88;53.75;101971.53;5145009;27;20048;-63
2023/07/18 06:33:09;;;;;;;4.63;2.03;;;;;;;18.88;53.56;101968.81;5144493;27;20078;-64
2023/07/18 06:35:37;;;;;;;3.60;1.40;;;;;;;18.89;53.46;101973.19;5140195;27;20050;-63
2023/07/18 06:38:05;;;;;;;7.20;1.80;;;;;;;18.90;53.63;101974.81;5143724;27;20043;-63
2023/07/18 06:40:34;;;;;;;3.38;1.95;;;;;;;18.91;53.36;101968.31;5143469;27;20055;-65
2023/07/18 06:43:02;;;;;;;2.10;1.38;;;;;;;18.91;53.64;101973.75;5139725;27;20047;-63
2023/07/18 06:45:32;;;;;;;2.83;1.50;;;;;;;18.93;53.51;101968.06;5145204;27;20053;-61
2023/07/18 06:48:00;;;;;;;2.55;1.42;;;;;;;18.95;53.50;101968.63;5142711;27;20051;-63
2023/07/18 06:50:28;;;;;;;4.55;1.55;;;;;;;18.96;53.58;101968.38;5144860;27;20100;-63
2023/07/18 06:52:55;;;;;;;3.67;1.45;;;;;;;18.98;53.53;101974.41;5142162;27;20072;-63
2023/07/18 06:55:23;;;;;;;3.67;1.73;;;;;;;18.99;53.39;101959.69;5140173;27;20057;-62
2023/07/18 06:57:52;;;;;;;2.25;1.20;;;;;;;19.02;53.04;101969.28;5132673;27;20096;-62
2023/07/18 07:00:21;;;;;;;3.33;1.20;;;;;;;19.03;53.26;101974.47;5154025;27;20081;-63
2023/07/18 07:02:49;;;;;;;3.47;1.25;;;;;;;19.05;53.14;101974.22;5138938;27;20047;-63
2023/07/18 07:05:17;;;;;;;2.97;1.20;;;;;;;19.05;53.01;101966.88;5139116;27;20054;-64
2023/07/18 07:07:45;;;;;;;22.60;4.15;;;;;;;19.11;54.10;101970.47;5140107;27;20058;-62
2023/07/18 07:10:13;;;;;;;10.07;1.38;;;;;;;19.09;53.38;101973.44;5132928;27;20137;-62
2023/07/18 07:12:41;;;;;;;9.63;1.55;;;;;;;19.07;54.02;101969.31;5139322;27;20051;-64
2023/07/18 07:15:11;;;;;;;3.95;1.27;;;;;;;19.04;54.01;101970.66;5139078;27;20096;-66
2023/07/18 07:17:40;;;;;;;4.70;1.55;;;;;;;18.94;53.71;101961.53;5130634;27;20051;-65
2023/07/18 07:20:12;;;;;;;3.92;1.48;;;;;;;19.01;53.79;101973.91;5135154;27;20043;-66
2023/07/18 07:22:43;;;;;;;4.68;1.33;;;;;;;19.00;53.69;101968.69;5135809;27;20039;-66
2023/07/18 07:25:13;;;;;;;6.55;1.33;;;;;;;18.99;53.72;101970.59;5135420;27;20039;-66
2023/07/18 07:27:44;;;;;;;5.88;1.80;;;;;;;19.00;53.57;101965.97;5136762;27;20069;-66
2023/07/18 07:30:15;;;;;;;6.32;1.40;;;;;;;19.02;53.56;101969.28;5135320;27;20043;-66
2023/07/18 07:32:44;;;;;;;4.43;1.50;;;;;;;19.03;53.50;101962.75;5136835;27;20054;-65
2023/07/18 07:35:13;;;;;;;3.63;1.30;;;;;;;19.06;53.75;101965.78;5136826;27;20047;-65
2023/07/18 07:37:41;;;;;;;5.47;1.58;;;;;;;19.08;53.50;101960.88;5137923;27;20077;-66
2023/07/18 07:40:11;;;;;;;7.80;1.25;;;;;;;19.11;53.32;101963.13;5139208;27;20116;-66
2023/07/18 07:42:39;;;;;;;4.82;1.45;;;;;;;19.15;53.05;101960.72;5137129;27;20069;-65
2023/07/18 07:45:08;;;;;;;6.40;1.30;;;;;;;19.17;52.93;101973.00;5135477;27;20043;-65
2023/07/18 07:47:37;;;;;;;3.08;1.20;;;;;;;19.22;53.09;101965.97;5137929;27;20046;-65
2023/07/18 07:50:06;;;;;;;3.03;1.10;;;;;;;19.24;53.24;101963.81;5135089;27;20119;-65
2023/07/18 07:52:34;;;;;;;4.05;1.10;;;;;;;19.27;53.35;101966.88;5134645;27;20081;-65
2023/07/18 07:55:02;;;;;;;6.70;1.45;;;;;;;19.28;53.56;101970.41;5138184;27;20080;-66
2023/07/18 07:57:30;;;;;;;3.45;1.25;;;;;;;19.30;52.68;101966.38;5130684;27;20100;-70
2023/07/18 07:59:58;;;;;;;2.83;1.30;;;;;;;19.30;51.72;101963.63;5140741;27;20049;-66
2023/07/18 08:02:26;;;;;;;3.05;1.13;;;;;;;19.31;51.63;101962.56;5136901;27;20127;-66
2023/07/18 08:04:55;;;;;;;5.05;0.98;;;;;;;19.31;51.78;101964.47;5136284;27;20041;-66
2023/07/18 08:07:23;;;;;;;4.00;1.00;;;;;;;19.35;51.38;101957.44;5130826;27;20051;-66
2023/07/18 08:09:51;;;;;;;3.45;1.02;;;;;;;19.36;51.01;101950.91;5134759;27;20101;-66
2023/07/18 08:12:20;;;;;;;3.38;1.13;;;;;;;19.38;51.49;101948.75;5136418;27;20051;-66
2023/07/18 08:14:49;;;;;;;1.92;0.73;;;;;;;19.40;51.11;101941.13;5131887;27;20057;-66
2023/07/18 08:17:17;;;;;;;2.95;1.00;;;;;;;19.40;51.06;101941.97;5135647;27;20079;-66
2023/07/18 08:19:45;;;;;;;5.65;1.25;;;;;;;19.44;51.07;101943.09;5136185;27;20055;-65
2023/07/18 08:22:15;;;;;;;2.80;0.88;;;;;;;19.47;50.99;101950.78;5134329;27;20055;-66
2023/07/18 08:24:43;;;;;;;3.13;0.90;;;;;;;19.49;50.70;101943.16;5137126;28;20116;-65
2023/07/18 08:27:11;;;;;;;4.05;0.70;;;;;;;19.54;50.96;101950.59;5131894;27;20040;-65
2023/07/18 08:29:41;;;;;;;3.67;0.82;;;;;;;19.57;50.49;101947.38;5138677;27;20051;-65
2023/07/18 08:32:09;;;;;;;3.63;1.00;;;;;;;19.60;50.02;101940.59;5135721;27;20043;-65
2023/07/18 08:34:37;;;;;;;1.25;0.65;;;;;;;19.64;49.67;101937.09;5133727;28;20113;-65
2023/07/18 08:37:08;;;;;;;3.65;1.20;;;;;;;19.67;49.87;101931.13;5136685;27;20197;-65
2023/07/18 08:39:37;;;;;;;3.15;0.80;;;;;;;19.70;49.40;101924.31;5131206;28;20453;-65
2023/07/18 08:42:06;;;;;;;2.78;1.05;;;;;;;19.75;49.71;101930.66;5138300;28;20042;-65
2023/07/18 08:44:35;;;;;;;3.67;1.05;;;;;;;19.77;49.53;101927.69;5132875;28;20096;-66
2023/07/18 08:47:05;;;;;;;1.92;0.60;;;;;;;19.77;49.61;101919.50;5136611;27;20043;-66
2023/07/18 08:49:35;;;;;;;2.38;0.63;;;;;;;19.81;48.99;101921.44;5135977;28;20047;-65
2023/07/18 08:52:04;;;;;;;3.83;1.10;;;;;;;19.85;48.47;101926.41;5137068;28;20043;-65
2023/07/18 08:54:34;;;;;;;2.80;0.80;;;;;;;19.89;48.70;101919.34;5133886;28;20047;-64
2023/07/18 08:57:05;;;;;;;5.78;0.93;;;;;;;19.93;48.97;101913.13;5136405;27;20051;-65
2023/07/18 08:59:34;;;;;;;3.13;0.65;;;;;;;19.91;49.29;101889.91;5135886;27;20072;-65
2023/07/18 09:02:01;;;;;;;2.33;0.77;;;;;;;20.03;49.69;101905.03;5137447;28;20065;-64
2023/07/18 09:04:31;;;;;;;3.50;0.85;;;;;;;20.09;49.79;101903.16;5142200;28;20047;-66
2023/07/18 09:07:01;;;;;;;2.65;0.80;;;;;;;20.13;49.91;101899.66;5140429;28;20070;-67
2023/07/18 09:09:28;;;;;;;1.85;0.93;;;;;;;20.17;49.84;101913.59;5143618;28;20101;-65
2023/07/18 09:11:57;;;;;;;3.60;0.85;;;;;;;20.19;50.08;101903.25;5138736;28;20051;-65
2023/07/18 09:14:33;;;;;;;3.70;1.25;;;;;;;20.22;50.17;101900.00;5153278;27;20515;-65
2023/07/18 09:17:03;;;;;;;2.72;0.68;;;;;;;20.25;50.25;101902.22;5149908;27;20102;-65
2023/07/18 09:19:39;;;;;;;1.40;0.47;;;;;;;20.26;50.21;101894.84;5142777;27;20051;-65
2023/07/18 09:22:08;;;;;;;1.38;0.70;;;;;;;20.27;50.20;101894.56;5131225;28;20047;-65
2023/07/18 09:24:37;;;;;;;1.25;0.60;;;;;;;20.28;50.18;101896.22;5144029;27;20043;-65
2023/07/18 09:27:06;;;;;;;1.70;0.73;;;;;;;20.27;50.45;101893.75;5141253;27;20109;-66
2023/07/18 09:29:36;;;;;;;1.60;0.50;;;;;;;20.27;50.54;101880.09;5150668;27;20050;-65
2023/07/18 09:32:05;;;;;;;4.97;0.73;;;;;;;20.28;50.35;101879.03;5144660;27;20047;-65
2023/07/18 09:34:32;;;;;;;1.52;0.88;;;;;;;20.28;50.52;101879.84;5146919;27;20043;-66
2023/07/18 09:37:03;;;;;;;1.02;0.93;;;;;;;20.29;50.48;101880.66;5139413;27;20051;-65
2023/07/18 09:39:31;;;;;;;2.40;0.77;;;;;;;20.28;50.58;101871.66;5152611;27;20139;-66
2023/07/18 09:41:58;;;;;;;1.52;0.65;;;;;;;20.30;50.36;101876.84;5147597;27;20047;-65
2023/07/18 09:44:30;;;;;;;0.60;0.55;;;;;;;20.28;50.25;101877.13;5147218;27;20039;-65
2023/07/18 09:47:02;;;;;;;1.80;0.68;;;;;;;20.31;50.27;101881.22;5142059;27;20549;-65
2023/07/18 09:49:30;;;;;;;0.65;0.40;;;;;;;20.33;50.33;101881.78;5142786;27;20533;-66
2023/07/18 09:52:03;;;;;;;2.78;0.82;;;;;;;20.34;50.35;101877.97;5146511;27;20047;-65
2023/07/18 09:54:33;;;;;;;1.40;0.60;;;;;;;20.34;50.50;101873.34;5142459;27;20077;-65
2023/07/18 09:57:04;;;;;;;2.15;0.80;;;;;;;20.36;50.45;101873.91;5148156;27;20047;-65
2023/07/18 09:59:37;;;;;;;1.90;0.80;;;;;;;20.36;50.57;101862.97;5145078;27;20111;-65
2023/07/18 10:02:08;;;;;;;2.35;0.70;;;;;;;20.34;50.37;101856.97;5138214;27;20050;-66
2023/07/18 10:04:36;;;;;;;1.15;0.60;;;;;;;20.32;50.30;101863.75;5141002;27;20091;-65
2023/07/18 10:07:08;;;;;;;2.33;0.85;;;;;;;20.34;49.99;101865.16;5141386;27;20051;-65
2023/07/18 10:09:38;;;;;;;1.27;0.40;;;;;;;20.30;49.94;101844.91;5146081;27;20055;-66
2023/07/18 10:12:10;;;;;;;3.00;1.25;;;;;;;20.30;49.75;101852.28;5138019;27;20039;-65
2023/07/18 10:15:00;;;;;;;2.83;0.50;;;;;;;20.31;49.46;101830.19;5142780;27;20174;-64
2023/07/18 10:17:34;;;;;;;2.58;0.93;;;;;;;20.33;49.73;101832.66;5138179;27;20083;-64
2023/07/18 10:20:06;;;;;;;1.38;0.70;;;;;;;20.32;49.47;101834.56;5143104;27;20459;-65
2023/07/18 10:22:34;;;;;;;1.55;0.60;;;;;;;20.35;49.55;101825.00;5142857;27;20051;-65
2023/07/18 10:25:06;;;;;;;2.65;0.70;;;;;;;20.38;49.44;101827.22;5142549;27;20042;-64
2023/07/18 10:27:38;;;;;;;1.75;0.60;;;;;;;20.40;49.76;101830.53;5139228;27;20233;-64
2023/07/18 10:30:08;;;;;;;0.65;0.40;;;;;;;20.44;49.74;101828.94;5137272;27;20039;-64
2023/07/18 10:32:38;;;;;;;1.25;0.60;;;;;;;20.45;49.84;101834.13;5146098;27;20043;-64
2023/07/18 10:35:08;;;;;;;1.70;0.52;;;;;;;20.49;49.80;101830.88;5138977;27;20058;-64
2023/07/18 10:37:36;;;;;;;2.28;0.50;;;;;;;20.50;49.75;101825.13;5139646;27;20376;-64
2023/07/18 10:40:06;;;;;;;2.95;0.80;;;;;;;20.53;49.93;101821.88;5145653;27;20073;-65
2023/07/18 10:42:34;;;;;;;0.90;0.57;;;;;;;20.57;49.73;101822.16;5140659;27;20146;-64
2023/07/18 10:45:05;;;;;;;2.75;0.98;;;;;;;20.59;50.05;101823.56;5138499;27;20561;-62
2023/07/18 10:47:35;;;;;;;1.60;0.75;;;;;;;20.63;50.23;101816.47;4784274;27;10000470;-63
2023/07/18 10:50:06;;;;;;;1.63;0.90;;;;;;;20.64;50.11;101809.94;5140948;27;20314;-62
2023/07/18 10:52:34;;;;;;;1.30;0.65;;;;;;;20.67;49.92;101805.84;5142216;27;20058;-63
2023/07/18 10:55:04;;;;;;;1.85;0.73;;;;;;;20.73;49.93;101811.06;5141301;27;20047;-63
2023/07/18 10:57:33;;;;;;;1.08;0.82;;;;;;;20.75;50.08;101806.16;5138047;27;20070;-63
2023/07/18 11:00:03;;;;;;;3.92;1.00;;;;;;;20.78;50.13;101810.25;5141417;27;20099;-63
2023/07/18 11:02:36;;;;;;;0.70;0.47;;;;;;;20.82;50.12;101805.06;5142091;27;20046;-63
2023/07/18 11:05:10;;;;;;;0.40;0.40;;;;;;;20.84;50.04;101800.97;5141963;27;20119;-63
2023/07/18 11:07:41;;;;;;;2.78;0.52;;;;;;;20.87;50.47;101802.34;5138662;27;20070;-63
2023/07/18 11:10:10;;;;;;;0.93;0.50;;;;;;;20.90;50.22;101807.28;5129111;27;20043;-63
2023/07/18 11:12:38;;;;;;;0.65;0.60;;;;;;;20.91;50.54;101806.19;5133849;27;20412;-63
2023/07/18 11:15:07;;;;;;;2.13;0.57;;;;;;;20.95;50.28;101801.81;5144189;27;20058;-62
2023/07/18 11:17:38;;;;;;;1.95;0.60;;;;;;;20.99;50.36;101795.56;5140519;27;20047;-62
2023/07/18 11:20:11;;;;;;;1.25;0.65;;;;;;;21.03;50.15;101801.31;5136209;27;20043;-63
2023/07/18 11:22:40;;;;;;;0.73;0.60;;;;;;;21.05;50.35;101790.94;5142817;27;20054;-64
2023/07/18 11:25:10;;;;;;;2.03;0.52;;;;;;;21.17;50.29;101790.69;5135387;27;20047;-64
2023/07/18 11:27:38;;;;;;;1.33;0.55;;;;;;;21.19;50.29;101788.50;5142287;27;20035;-64
2023/07/18 11:30:08;;;;;;;1.02;0.80;;;;;;;21.22;50.19;101774.31;5138257;27;20051;-64
2023/07/18 11:32:38;;;;;;;1.40;0.60;;;;;;;21.25;50.52;101771.88;5139603;27;20073;-62